Weather at Tory Island Helistrip

Public forecast

Using degrees Celsius for public forecast. Weather courtesy of forecast.io.

Closest aviation weather report (METAR) to Tory Island Helistrip

Closest report is Donegal Airport, 13.8 nm (25.5 km) SSW.

2024/05/21 14:00 (retrieved 12 minutes ago)

EIDL 211400Z 36008KT 8000 SCT003 BKN014 OVC017 13/13 Q1011

Closest aviation forecast (TAF) to Tory Island Helistrip

Closest forecast is Belfast International Airport, 78.6 nm (145.5 km) ESE.

2024/05/21 12:00 (retrieved 2 hours ago)

TAF EGAA 211101Z 2112/2212 07005KT 9999 SCT022 PROB30 TEMPO 2112/2120 3000 +SHRA +TSRA TEMPO 2204/2212 BKN010 PROB30 TEMPO 2205/2210 6000 SHRA BKN004